Time;durP1;ratioP1;P1;durP2;ratioP2;P2;SDS_P1;SDS_P2;PMS_P1;PMS_P2;Temp;Humidity;BMP_temperature;BMP_pressure;BME280_temperature;BME280_humidity;BME280_pressure;Samples;Min_cycle;Max_cycle;Signal;HPM_P1;HPM_P2
2023/04/05 00:01:38;;;;;;;;;21.00;18.75;;;;;-2.49;84.74;99378.59;5069726;28;8861;-84
2023/04/05 00:04:07;;;;;;;;;20.00;20.00;;;;;-2.71;85.15;99369.38;5026358;28;8828;-83
2023/04/05 00:06:38;;;;;;;;;18.50;16.50;;;;;-2.75;85.14;99371.78;5026653;28;8898;-86
2023/04/05 00:09:09;;;;;;;;;20.50;18.25;;;;;-2.73;85.83;99378.75;5044174;28;8857;-85
2023/04/05 00:11:37;;;;;;;;;20.00;17.75;;;;;-2.70;84.99;99388.25;5028518;28;8850;-85
2023/04/05 00:14:08;;;;;;;;;23.50;17.00;;;;;-2.56;85.03;99388.63;5025424;28;8856;-88
2023/04/05 00:16:37;;;;;;;;;17.25;15.75;;;;;-2.74;85.62;99392.41;4977322;28;8868;-85
2023/04/05 00:19:06;;;;;;;;;21.50;20.00;;;;;-2.53;84.61;99383.59;5010546;28;8886;-84
2023/04/05 00:21:37;;;;;;;;;16.50;14.50;;;;;-2.73;85.02;99385.56;5025474;28;8888;-84
2023/04/05 00:24:08;;;;;;;;;16.00;15.75;;;;;-2.73;85.07;99385.56;5035394;28;9710;-84
2023/04/05 00:26:37;;;;;;;;;27.50;21.25;;;;;-2.95;85.23;99389.22;5009818;28;8844;-85
2023/04/05 00:29:06;;;;;;;;;17.75;15.25;;;;;-3.18;86.20;99389.34;5009838;28;8896;-86
2023/04/05 00:31:36;;;;;;;;;16.80;15.00;;;;;-2.91;86.38;99393.63;5010139;28;8891;-85
2023/04/05 00:34:07;;;;;;;;;16.80;15.40;;;;;-2.83;85.30;99392.13;5029875;28;8862;-83
2023/04/05 00:36:37;;;;;;;;;16.40;14.40;;;;;-2.84;85.16;99385.25;5036253;28;8856;-86
2023/04/05 00:39:06;;;;;;;;;21.50;18.50;;;;;-2.91;85.48;99379.03;5062035;28;8869;-85
2023/04/05 00:41:35;;;;;;;;;20.75;19.25;;;;;-3.12;86.19;99389.53;5069644;28;8846;-85
2023/04/05 00:44:06;;;;;;;;;21.25;20.75;;;;;-3.06;86.14;99386.28;5053357;28;8855;-84
2023/04/05 00:46:37;;;;;;;;;14.00;13.00;;;;;-3.05;86.31;99388.91;5086740;28;9612;-86
2023/04/05 00:49:06;;;;;;;;;18.00;16.00;;;;;-3.00;85.47;99389.03;5087489;28;8838;-85
2023/04/05 00:51:37;;;;;;;;;16.00;14.75;;;;;-2.67;84.70;99393.50;5054234;28;8892;-83
2023/04/05 00:54:07;;;;;;;;;16.50;15.25;;;;;-2.86;84.86;99398.06;5072926;28;8854;-85
2023/04/05 00:56:36;;;;;;;;;13.75;11.75;;;;;-2.90;84.50;99398.81;5053930;28;8846;-86
2023/04/05 00:59:06;;;;;;;;;20.75;17.75;;;;;-2.92;84.84;99399.56;5070078;28;8839;-85
2023/04/05 01:01:40;;;;;;;;;20.50;13.75;;;;;-2.84;84.44;99394.69;5076745;28;8853;-87
2023/04/05 01:04:12;;;;;;;;;22.50;19.25;;;;;-2.91;84.47;99393.63;5104136;28;8842;-84
2023/04/05 01:06:53;;;;;;;;;17.00;17.00;;;;;-2.76;84.63;99395.78;5087291;28;8858;-85
2023/04/05 01:09:36;;;;;;;;;16.80;15.60;;;;;-2.81;84.46;99395.63;5078390;28;8843;-85
2023/04/05 01:12:07;;;;;;;;;20.00;14.50;;;;;-2.90;83.90;99398.81;5109232;28;8852;-86
2023/04/05 01:14:46;;;;;;;;;20.00;17.50;;;;;-2.93;83.71;99405.56;5093106;28;8881;-84
2023/04/05 01:17:21;;;;;;;;;16.00;15.00;;;;;-3.20;84.01;99393.56;5096097;28;9732;-84
2023/04/05 01:19:57;;;;;;;;;16.50;16.00;;;;;-3.05;84.69;99403.47;5052594;28;8854;-85
2023/04/05 01:23:05;;;;;;;;;18.75;16.25;;;;;-3.06;84.41;99392.28;5017374;28;8939;-82
2023/04/05 01:26:11;;;;;;;;;9.50;9.50;;;;;-3.07;84.23;99390.56;5030209;28;8927;-82
2023/04/05 01:29:19;;;;;;;;;19.00;16.75;;;;;-2.90;83.97;99387.66;5013710;28;8849;-83
2023/04/05 01:31:56;;;;;;;;;16.00;16.00;;;;;-3.28;84.56;99395.91;4967065;28;8999;-83
2023/04/05 01:34:35;;;;;;;;;9.25;9.25;;;;;-3.33;85.02;99387.16;4980946;28;8896;-83
2023/04/05 01:37:09;;;;;;;;;16.00;12.50;;;;;-3.05;84.28;99390.63;4981923;28;8866;-82
2023/04/05 01:39:38;;;;;;;;;20.00;14.25;;;;;-3.39;84.91;99383.50;4950130;28;8872;-83
2023/04/05 01:42:08;;;;;;;;;19.75;18.50;;;;;-3.29;84.36;99394.16;4966547;28;8862;-82
2023/04/05 01:44:37;;;;;;;;;13.20;9.60;;;;;-3.29;84.94;99389.00;4955108;28;8878;-82
2023/04/05 01:47:07;;;;;;;;;19.75;18.00;;;;;-3.35;84.57;99383.69;4970610;28;8864;-83
2023/04/05 01:49:36;;;;;;;;;19.75;15.50;;;;;-3.25;84.18;99389.97;4980910;28;9002;-82
2023/04/05 01:52:05;;;;;;;;;13.25;12.00;;;;;-3.33;84.65;99396.59;4950082;28;8957;-81
2023/04/05 01:54:34;;;;;;;;;15.25;14.00;;;;;-3.20;83.77;99392.72;4965951;28;9595;-83
2023/04/05 01:57:04;;;;;;;;;9.75;9.75;;;;;-3.20;83.83;99385.00;4960618;28;8868;-83
2023/04/05 01:59:33;;;;;;;;;13.75;13.25;;;;;-2.82;83.33;99403.31;5018609;28;8865;-81
2023/04/05 02:02:03;;;;;;;;;12.50;12.50;;;;;-2.92;83.24;99385.03;5006863;28;8838;-81
2023/04/05 02:04:34;;;;;;;;;15.00;15.00;;;;;-2.93;82.99;99395.28;5006195;28;8959;-80
2023/04/05 02:07:03;;;;;;;;;12.75;11.00;;;;;-3.29;83.69;99399.28;5023310;28;8918;-82
2023/04/05 02:09:32;;;;;;;;;18.00;13.25;;;;;-3.44;83.65;99401.34;5070754;28;8861;-82
2023/04/05 02:12:02;;;;;;;;;10.25;9.25;;;;;-3.33;84.06;99392.31;5104232;28;8848;-81
2023/04/05 02:14:31;;;;;;;;;15.50;13.75;;;;;-3.27;83.59;99392.50;5053364;28;8865;-82
2023/04/05 02:17:01;;;;;;;;;17.25;16.50;;;;;-3.45;83.65;99403.06;5065746;28;8859;-80
2023/04/05 02:19:39;;;;;;;;;15.75;15.75;;;;;-3.44;83.94;99402.22;5033123;28;8848;-82
2023/04/05 02:22:10;;;;;;;;;10.00;7.25;;;;;-3.28;83.95;99398.47;5033098;28;8864;-82
2023/04/05 02:24:40;;;;;;;;;12.50;11.50;;;;;-3.21;83.44;99403.81;5033639;28;8917;-82
2023/04/05 02:27:09;;;;;;;;;15.00;13.75;;;;;-3.45;83.78;99410.78;5083598;28;8840;-81
2023/04/05 02:29:38;;;;;;;;;16.75;14.75;;;;;-3.22;83.58;99399.47;5033475;28;8847;-81
2023/04/05 02:32:07;;;;;;;;;13.00;13.00;;;;;-3.13;83.14;99400.66;5050762;28;8860;-83
2023/04/05 02:34:40;;;;;;;;;18.25;15.25;;;;;-3.35;83.60;99406.81;5064248;28;8881;-84
2023/04/05 02:37:10;;;;;;;;;15.25;15.25;;;;;-3.27;83.13;99409.63;5068682;28;8881;-81
2023/04/05 02:39:41;;;;;;;;;17.75;11.00;;;;;-3.40;84.04;99403.19;5068384;28;8842;-84
2023/04/05 02:42:10;;;;;;;;;13.40;12.20;;;;;-3.14;83.15;99406.63;5067068;28;8840;-80
2023/04/05 02:44:39;;;;;;;;;9.75;9.00;;;;;-3.07;83.39;99400.00;5087783;28;8836;-82
2023/04/05 02:47:10;;;;;;;;;20.00;12.00;;;;;-3.29;83.21;99413.84;5106022;28;8855;-82
2023/04/05 02:49:40;;;;;;;;;19.25;16.00;;;;;-3.33;83.68;99407.72;5094621;28;8860;-83
2023/04/05 02:52:11;;;;;;;;;9.00;9.00;;;;;-3.51;83.73;99400.31;5109693;28;9680;-82
2023/04/05 02:54:41;;;;;;;;;17.50;16.25;;;;;-3.28;83.83;99407.84;5075034;28;8845;-82
2023/04/05 02:57:11;;;;;;;;;11.00;11.00;;;;;-3.16;83.48;99408.28;5124947;27;8874;-81
2023/04/05 02:59:50;;;;;;;;;20.75;17.25;;;;;-2.95;82.30;99410.66;5091304;28;8853;-82
2023/04/05 03:02:22;;;;;;;;;9.75;9.75;;;;;-3.10;82.32;99402.44;5077161;28;8858;-83
2023/04/05 03:04:52;;;;;;;;;16.75;15.75;;;;;-2.87;81.53;99398.03;5084174;28;8850;-82
2023/04/05 03:07:24;;;;;;;;;14.50;13.50;;;;;-3.28;82.08;99401.03;5055312;28;8870;-81
2023/04/05 03:09:54;;;;;;;;;11.50;10.00;;;;;-3.40;82.38;99404.91;5087566;28;8883;-80
2023/04/05 03:12:24;;;;;;;;;10.50;10.50;;;;;-3.23;81.19;99408.88;5086273;28;8842;-81
2023/04/05 03:14:53;;;;;;;;;12.00;10.00;;;;;-3.20;80.95;99401.28;5070508;28;8860;-81
2023/04/05 03:17:24;;;;;;;;;19.00;17.00;;;;;-3.42;81.46;99410.00;5049294;28;8839;-82
2023/04/05 03:20:01;;;;;;;;;13.50;7.00;;;;;-3.53;81.98;99408.75;5003534;28;8877;-78
2023/04/05 03:22:32;;;;;;;;;13.50;12.75;;;;;-3.08;80.78;99401.66;5050973;28;8978;-83
2023/04/05 03:25:03;;;;;;;;;13.50;13.25;;;;;-3.07;81.38;99392.28;5055735;28;9017;-80
2023/04/05 03:27:33;;;;;;;;;9.00;7.75;;;;;-3.18;80.20;99415.06;5054452;28;8868;-81
2023/04/05 03:30:08;;;;;;;;;5.00;3.50;;;;;-3.33;81.14;99407.72;5061075;28;9028;-81
2023/04/05 03:32:42;;;;;;;;;17.00;14.50;;;;;-3.05;79.22;99403.47;5028576;28;8854;-81
2023/04/05 03:35:21;;;;;;;;;13.75;12.50;;;;;-3.51;79.98;99409.69;5068924;28;8934;-81
2023/04/05 03:37:52;;;;;;;;;10.50;9.25;;;;;-3.18;79.02;99411.63;5086702;28;8851;-81
2023/04/05 03:40:22;;;;;;;;;14.75;12.00;;;;;-3.07;78.78;99413.72;5085510;28;8843;-82
2023/04/05 03:42:52;;;;;;;;;12.00;12.00;;;;;-2.90;78.71;99401.38;5069496;28;8820;-82
2023/04/05 03:45:21;;;;;;;;;10.50;10.50;;;;;-3.07;78.76;99418.00;5086078;28;8852;-83
2023/04/05 03:47:53;;;;;;;;;12.20;12.20;;;;;-3.07;77.24;99423.13;5069239;28;8880;-80
2023/04/05 03:50:23;;;;;;;;;13.20;13.20;;;;;-2.95;78.60;99412.34;5086868;28;8835;-79
2023/04/05 03:52:54;;;;;;;;;14.00;12.50;;;;;-3.03;78.47;99406.97;5069654;28;9598;-80
2023/04/05 03:55:24;;;;;;;;;9.25;8.50;;;;;-3.18;78.63;99412.50;5015410;28;8836;-81
2023/04/05 03:57:53;;;;;;;;;10.50;10.50;;;;;-3.19;79.35;99423.59;5043227;28;8843;-82
2023/04/05 04:00:32;;;;;;;;;9.75;9.75;;;;;-3.14;78.57;99426.31;5028202;28;8929;-84
2023/04/05 04:03:19;;;;;;;;;11.50;9.50;;;;;-3.29;78.99;99417.28;5027743;28;8962;-82
2023/04/05 04:05:52;;;;;;;;;15.00;14.50;;;;;-3.24;78.13;99430.31;5044154;28;8874;-81
2023/04/05 04:08:23;;;;;;;;;15.00;12.25;;;;;-3.07;78.30;99431.72;5027467;28;8874;-82
2023/04/05 04:10:52;;;;;;;;;14.00;11.50;;;;;-3.19;77.90;99420.16;5030749;28;9933;-81
2023/04/05 04:13:41;;;;;;;;;12.50;12.00;;;;;-2.97;77.50;99416.56;5031896;28;8981;-80
2023/04/05 04:16:34;;;;;;;;;15.00;9.00;;;;;-3.05;77.76;99427.50;5007426;28;8948;-79
2023/04/05 04:19:18;;;;;;;;;16.00;12.50;;;;;-3.00;77.40;99416.47;4976277;28;8867;-79
2023/04/05 04:22:03;;;;;;;;;21.25;19.25;;;;;-2.99;77.58;99421.66;5004388;28;8916;-80
2023/04/05 04:24:52;;;;;;;;;16.33;13.67;;;;;-2.97;78.19;99414.00;5006159;28;9064;-81
2023/04/05 04:27:41;;;;;;;;;12.50;11.50;;;;;-3.25;79.68;99419.13;5035753;28;8860;-84
2023/04/05 04:30:36;;;;;;;;;12.50;12.50;;;;;-2.87;78.87;99413.47;5028879;28;8900;-84
2023/04/05 04:33:10;;;;;;;;;12.75;11.00;;;;;-3.09;78.48;99420.50;4988260;28;8887;-81
2023/04/05 04:36:07;;;;;;;;;12.00;12.00;;;;;-2.91;78.75;99416.75;5008663;28;8901;-80
2023/04/05 04:39:12;;;;;;;;;14.00;13.00;;;;;-3.03;78.76;99417.25;4992243;28;8918;-80
2023/04/05 04:42:05;;;;;;;;;12.25;12.25;;;;;-2.98;78.12;99425.09;5027370;28;8962;-81
2023/04/05 04:44:49;;;;;;;;;19.00;18.25;;;;;-2.80;78.79;99419.69;5029183;28;8914;-81
2023/04/05 04:47:38;;;;;;;;;17.00;15.50;;;;;-2.86;78.53;99421.22;4994086;28;8973;-80
2023/04/05 04:50:18;;;;;;;;;27.25;20.50;;;;;-2.94;79.08;99426.94;5009862;28;8903;-81
2023/04/05 04:52:48;;;;;;;;;19.75;17.75;;;;;-2.89;79.47;99421.13;4977553;28;8996;-80
2023/04/05 04:55:17;;;;;;;;;20.75;19.25;;;;;-2.57;78.34;99422.94;4965634;28;8878;-81
2023/04/05 04:57:51;;;;;;;;;12.00;10.00;;;;;-2.55;77.85;99424.72;4933049;28;8877;-81
2023/04/05 05:00:22;;;;;;;;;20.25;19.50;;;;;-2.44;77.43;99421.63;4964869;28;8892;-81
2023/04/05 05:02:52;;;;;;;;;22.75;21.75;;;;;-2.39;77.48;99432.88;4964216;28;8885;-81
2023/04/05 05:05:22;;;;;;;;;24.25;23.25;;;;;-2.56;77.96;99434.97;4947967;28;8854;-79
2023/04/05 05:07:51;;;;;;;;;25.50;22.75;;;;;-2.43;77.25;99431.06;4964199;28;8938;-84
2023/04/05 05:10:21;;;;;;;;;27.00;19.25;;;;;-2.47;77.30;99432.66;5005918;28;9004;-79
2023/04/05 05:12:51;;;;;;;;;19.50;18.50;;;;;-2.66;78.08;99434.72;5023992;28;8890;-81
2023/04/05 05:15:21;;;;;;;;;16.50;16.25;;;;;-2.68;77.65;99436.34;4990008;28;8864;-81
2023/04/05 05:17:51;;;;;;;;;21.00;20.50;;;;;-2.49;77.18;99437.78;4964519;28;9008;-81
2023/04/05 05:20:21;;;;;;;;;20.25;16.25;;;;;-2.66;77.22;99429.56;4986481;28;8858;-78
2023/04/05 05:22:50;;;;;;;;;26.50;21.75;;;;;-2.31;77.03;99431.44;4952063;28;8918;-81
2023/04/05 05:25:19;;;;;;;;;27.00;24.75;;;;;-2.34;77.11;99439.91;5022347;28;8862;-79
2023/04/05 05:27:49;;;;;;;;;25.50;20.00;;;;;-2.08;75.45;99434.66;5055708;28;8895;-81
2023/04/05 05:30:20;;;;;;;;;29.50;23.00;;;;;-2.00;75.40;99448.63;5059616;28;8945;-81
2023/04/05 05:32:49;;;;;;;;;21.00;19.50;;;;;-1.90;75.25;99442.00;5029120;28;8945;-80
2023/04/05 05:35:18;;;;;;;;;21.80;20.60;;;;;-1.84;75.15;99447.34;5052491;28;8845;-80
2023/04/05 05:37:47;;;;;;;;;25.75;22.25;;;;;-1.49;74.28;99445.69;5073346;28;8847;-79
2023/04/05 05:40:16;;;;;;;;;21.00;21.00;;;;;-1.06;72.78;99437.31;5064400;28;8845;-81
2023/04/05 05:42:45;;;;;;;;;23.50;20.00;;;;;-1.31;73.61;99437.59;5068248;28;9881;-80
2023/04/05 05:45:14;;;;;;;;;21.75;17.00;;;;;-1.08;72.29;99439.88;5069820;28;8845;-79
2023/04/05 05:47:44;;;;;;;;;19.00;19.00;;;;;-1.04;71.47;99443.41;5088152;28;8852;-78
2023/04/05 05:50:15;;;;;;;;;22.75;19.50;;;;;-1.18;71.77;99438.78;5071601;28;8950;-79
2023/04/05 05:52:43;;;;;;;;;29.50;24.00;;;;;-1.12;72.36;99433.75;5068543;28;8866;-78
2023/04/05 05:55:12;;;;;;;;;21.00;17.50;;;;;-0.81;72.02;99441.34;5089039;28;8847;-81
2023/04/05 05:57:41;;;;;;;;;20.25;20.25;;;;;-1.26;71.47;99448.00;5085460;28;8858;-80
2023/04/05 06:00:11;;;;;;;;;22.75;18.75;;;;;-1.42;72.34;99443.31;5068998;28;8858;-82
2023/04/05 06:02:40;;;;;;;;;13.75;13.00;;;;;-1.30;72.37;99441.91;5075314;28;8900;-78
2023/04/05 06:05:10;;;;;;;;;26.00;24.50;;;;;-1.37;72.45;99444.28;5106050;28;8851;-80
2023/04/05 06:07:39;;;;;;;;;18.25;18.25;;;;;-1.51;73.10;99451.66;5072273;28;8868;-80
2023/04/05 06:10:09;;;;;;;;;16.60;14.00;;;;;-1.69;73.19;99445.19;5080534;28;8896;-80
2023/04/05 06:12:37;;;;;;;;;24.75;23.00;;;;;-2.20;74.12;99447.16;5101251;28;8876;-78
2023/04/05 06:15:07;;;;;;;;;21.75;19.00;;;;;-2.14;74.15;99455.09;5067692;28;8846;-78
2023/04/05 06:17:40;;;;;;;;;30.50;25.25;;;;;-2.25;74.75;99459.06;5080559;28;8847;-77
2023/04/05 06:20:11;;;;;;;;;15.00;13.50;;;;;-2.11;75.37;99460.31;5081486;28;8954;-78
2023/04/05 06:22:41;;;;;;;;;23.25;21.75;;;;;-2.10;74.54;99456.94;5069463;28;8862;-77
2023/04/05 06:25:11;;;;;;;;;24.50;16.50;;;;;-2.23;74.92;99460.84;5066768;28;8842;-79
2023/04/05 06:27:40;;;;;;;;;22.75;21.25;;;;;-2.27;75.55;99464.16;5062766;28;8880;-78
2023/04/05 06:30:10;;;;;;;;;18.75;18.00;;;;;-1.70;75.15;99461.47;5084586;28;9683;-78
2023/04/05 06:32:39;;;;;;;;;22.00;20.50;;;;;-1.78;75.07;99462.97;5078544;28;9007;-78
2023/04/05 06:35:08;;;;;;;;;24.25;22.00;;;;;-1.03;73.51;99460.59;5034097;28;8851;-77
2023/04/05 06:37:39;;;;;;;;;24.25;23.00;;;;;-1.25;73.40;99459.22;5049852;28;9097;-81
2023/04/05 06:40:09;;;;;;;;;33.25;25.50;;;;;-1.20;73.40;99465.34;5086274;28;8852;-78
2023/04/05 06:42:37;;;;;;;;;8.50;8.50;;;;;-0.71;72.47;99463.94;5109720;27;8823;-79
2023/04/05 06:45:11;;;;;;;;;13.00;9.75;;;;;-1.42;73.17;99464.78;5068742;28;8848;-81
2023/04/05 06:47:40;;;;;;;;;26.25;25.50;;;;;-1.50;75.48;99467.19;5038131;28;8888;-79
2023/04/05 06:50:10;;;;;;;;;31.25;27.50;;;;;-1.95;76.42;99472.81;5104387;28;8920;-78
2023/04/05 06:52:40;;;;;;;;;37.25;27.75;;;;;-1.81;75.22;99472.31;5089295;28;8848;-76
2023/04/05 06:55:09;;;;;;;;;32.00;27.25;;;;;-2.14;76.23;99476.56;5088296;28;8864;-78
2023/04/05 06:57:37;;;;;;;;;26.50;23.25;;;;;-1.91;76.10;99476.34;5086710;28;8830;-81
2023/04/05 07:00:10;;;;;;;;;37.50;31.75;;;;;-2.03;75.42;99476.88;5083905;28;8842;-80
2023/04/05 07:02:39;;;;;;;;;32.00;27.25;;;;;-2.24;75.95;99483.97;5069342;28;8839;-80
2023/04/05 07:05:10;;;;;;;;;41.50;38.50;;;;;-2.36;76.09;99487.91;5053700;28;8843;-81
2023/04/05 07:07:43;;;;;;;;;45.25;39.00;;;;;-2.24;75.94;99494.25;5101035;28;8834;-79
2023/04/05 07:10:12;;;;;;;;;46.25;39.50;;;;;-1.95;74.97;99493.41;5068467;28;8850;-80
2023/04/05 07:12:40;;;;;;;;;38.00;30.00;;;;;-2.45;75.49;99497.94;5067100;28;8890;-81
2023/04/05 07:15:10;;;;;;;;;58.00;46.25;;;;;-2.28;76.43;99496.78;5101043;28;8846;-80
2023/04/05 07:17:39;;;;;;;;;31.25;27.75;;;;;-2.34;76.09;99499.13;5033368;28;8846;-81
2023/04/05 07:20:08;;;;;;;;;30.50;28.00;;;;;-2.44;75.24;99503.97;5050170;28;8922;-81
2023/04/05 07:22:37;;;;;;;;;31.50;27.75;;;;;-2.37;75.83;99495.63;5066814;28;8854;-81
2023/04/05 07:25:09;;;;;;;;;43.25;35.00;;;;;-2.20;76.50;99502.16;5000455;28;8873;-82
2023/04/05 07:27:38;;;;;;;;;26.75;25.75;;;;;-2.19;75.65;99501.31;5016577;28;9000;-82
2023/04/05 07:30:08;;;;;;;;;40.00;31.75;;;;;-2.37;75.98;99506.78;5051429;28;8881;-81
2023/04/05 07:32:37;;;;;;;;;31.00;28.00;;;;;-2.47;74.93;99509.88;5049595;28;8942;-82
2023/04/05 07:35:07;;;;;;;;;37.00;31.50;;;;;-2.58;75.18;99512.16;5033939;28;8847;-81
2023/04/05 07:37:36;;;;;;;;;42.75;35.50;;;;;-2.47;75.38;99510.78;5101295;28;8935;-81
2023/04/05 07:40:09;;;;;;;;;31.25;28.50;;;;;-2.16;75.27;99503.13;5067225;28;8846;-81
2023/04/05 07:42:39;;;;;;;;;36.25;33.00;;;;;-2.18;75.46;99499.63;5065916;28;8839;-82
2023/04/05 07:45:08;;;;;;;;;29.50;28.50;;;;;-2.49;74.94;99508.97;5070212;28;8872;-81
2023/04/05 07:47:37;;;;;;;;;27.00;21.50;;;;;-2.73;75.09;99516.78;5072328;28;8880;-80
2023/04/05 07:50:08;;;;;;;;;24.25;24.25;;;;;-2.54;74.86;99506.25;5071119;28;8876;-81
2023/04/05 07:52:37;;;;;;;;;35.00;34.00;;;;;-2.60;75.13;99515.47;5072646;28;9649;-80
2023/04/05 07:55:08;;;;;;;;;38.50;35.00;;;;;-2.31;75.69;99516.41;5072209;28;8961;-80
2023/04/05 07:57:37;;;;;;;;;32.50;32.50;;;;;-2.55;74.35;99511.34;5020031;28;8902;-81
2023/04/05 08:00:10;;;;;;;;;31.50;28.50;;;;;-2.66;75.13;99521.31;5086886;28;8866;-81
2023/04/05 08:02:43;;;;;;;;;23.00;23.00;;;;;-2.52;75.74;99524.34;5071342;28;8858;-82
2023/04/05 08:05:11;;;;;;;;;29.00;27.25;;;;;-2.51;75.78;99524.34;5071372;28;8877;-81
2023/04/05 08:07:40;;;;;;;;;32.00;29.25;;;;;-2.59;75.17;99520.69;5053333;28;9016;-81
2023/04/05 08:10:11;;;;;;;;;35.75;30.75;;;;;-2.46;76.21;99533.09;5070498;28;8846;-80
2023/04/05 08:12:40;;;;;;;;;37.00;33.00;;;;;-2.42;76.12;99528.94;5071297;28;8866;-81
2023/04/05 08:15:10;;;;;;;;;30.25;26.50;;;;;-2.43;75.63;99531.44;5036274;28;8854;-82
2023/04/05 08:17:39;;;;;;;;;29.00;26.75;;;;;-2.63;74.59;99531.69;5071320;28;9618;-82
2023/04/05 08:20:09;;;;;;;;;29.50;24.25;;;;;-2.66;75.18;99536.75;5053292;28;8842;-82
2023/04/05 08:22:38;;;;;;;;;27.00;21.00;;;;;-2.62;74.58;99537.72;5070113;28;8866;-82
2023/04/05 08:25:08;;;;;;;;;31.25;27.50;;;;;-2.46;76.38;99537.38;5086701;28;8874;-82
2023/04/05 08:27:38;;;;;;;;;20.00;18.25;;;;;-2.56;75.73;99541.38;5003790;28;8877;-82
2023/04/05 08:30:09;;;;;;;;;24.50;22.50;;;;;-2.30;76.28;99526.75;5069997;28;9646;-81
2023/04/05 08:32:37;;;;;;;;;29.00;27.25;;;;;-2.35;76.71;99536.03;5069911;28;8912;-82
2023/04/05 08:35:07;;;;;;;;;36.00;31.75;;;;;-2.27;76.54;99546.56;5070994;28;8923;-82
2023/04/05 08:37:35;;;;;;;;;37.50;34.00;;;;;-2.35;76.91;99546.31;5070023;28;8907;-82
2023/04/05 08:40:07;;;;;;;;;27.75;24.75;;;;;-2.14;76.96;99551.25;5053478;28;8860;-84
2023/04/05 08:42:46;;;;;;;;;30.25;25.50;;;;;-2.26;76.55;99556.00;5071198;28;8854;-82
2023/04/05 08:45:19;;;;;;;;;31.75;26.75;;;;;-2.30;76.08;99559.31;5071419;28;8842;-82
2023/04/05 08:47:50;;;;;;;;;29.75;29.00;;;;;-2.16;76.20;99546.88;5086987;28;8893;-80
2023/04/05 08:50:19;;;;;;;;;34.25;29.50;;;;;-1.96;76.92;99552.63;5092698;28;8942;-82
2023/04/05 08:52:49;;;;;;;;;30.50;29.00;;;;;-2.14;74.95;99558.09;5053321;28;8851;-82
2023/04/05 08:55:19;;;;;;;;;28.25;24.50;;;;;-2.29;74.84;99567.09;5018788;28;8918;-83
2023/04/05 08:57:54;;;;;;;;;33.00;29.75;;;;;-2.10;75.36;99553.09;5067865;28;8840;-82
2023/04/05 09:00:23;;;;;;;;;25.75;23.75;;;;;-2.32;73.77;99548.97;5051293;28;8840;-80
2023/04/05 09:02:56;;;;;;;;;34.50;33.25;;;;;-2.04;74.80;99548.94;5052521;28;8855;-80
2023/04/05 09:05:26;;;;;;;;;31.00;24.75;;;;;-2.25;73.47;99552.63;5068589;28;8843;-81
2023/04/05 09:07:58;;;;;;;;;21.50;18.50;;;;;-2.03;74.33;99546.44;5067993;28;9655;-81
2023/04/05 09:10:29;;;;;;;;;30.00;27.25;;;;;-2.09;73.91;99553.94;5050888;28;8917;-82
2023/04/05 09:13:02;;;;;;;;;40.00;35.50;;;;;-1.99;73.51;99553.41;5067317;28;8864;-80
2023/04/05 09:15:32;;;;;;;;;32.75;32.75;;;;;-1.92;73.48;99547.63;5068221;28;8840;-81
2023/04/05 09:18:01;;;;;;;;;27.50;23.00;;;;;-1.96;72.93;99550.03;5058942;28;8873;-81
2023/04/05 09:20:37;;;;;;;;;29.25;28.25;;;;;-1.89;72.86;99560.56;5056925;28;8875;-80
2023/04/05 09:23:06;;;;;;;;;30.75;29.50;;;;;-1.88;73.73;99554.59;5106217;28;8985;-81
2023/04/05 09:25:37;;;;;;;;;35.75;30.00;;;;;-1.74;73.47;99565.31;5090602;28;8836;-80
2023/04/05 09:28:08;;;;;;;;;35.00;31.00;;;;;-1.68;73.29;99559.44;5090039;28;8855;-81
2023/04/05 09:30:37;;;;;;;;;19.50;18.00;;;;;-1.74;72.64;99561.88;5089041;28;8851;-80
2023/04/05 09:33:09;;;;;;;;;37.75;31.25;;;;;-1.79;73.00;99564.28;5056008;28;8878;-82
2023/04/05 09:35:38;;;;;;;;;29.75;28.25;;;;;-1.72;72.80;99555.91;5089969;28;8844;-81
2023/04/05 09:38:07;;;;;;;;;25.00;22.75;;;;;-1.76;72.83;99558.38;5090142;28;8895;-81
2023/04/05 09:40:42;;;;;;;;;35.25;30.00;;;;;-1.38;73.29;99556.00;5122577;27;9534;-80
2023/04/05 09:43:15;;;;;;;;;30.00;20.50;;;;;-1.52;70.11;99564.22;5099756;28;8834;-80
2023/04/05 09:45:44;;;;;;;;;30.25;26.00;;;;;-1.63;72.02;99555.31;5069245;28;9004;-81
2023/04/05 09:48:13;;;;;;;;;18.75;18.25;;;;;-1.58;71.81;99540.84;5069623;28;8845;-81
2023/04/05 09:50:42;;;;;;;;;32.50;28.50;;;;;-1.50;70.66;99544.50;5051453;28;8845;-80
2023/04/05 09:53:14;;;;;;;;;34.75;28.00;;;;;-1.59;70.49;99554.56;5068090;28;8951;-82
2023/04/05 09:55:44;;;;;;;;;24.75;23.75;;;;;-1.60;70.33;99557.09;5068489;28;8873;-80
2023/04/05 09:58:20;;;;;;;;;39.00;33.50;;;;;-1.29;70.15;99554.53;5051356;28;8846;-80
2023/04/05 10:00:52;;;;;;;;;37.00;36.50;;;;;-1.21;71.49;99553.88;5101496;28;8854;-79
2023/04/05 10:03:47;;;;;;;;;35.50;28.50;;;;;-1.32;70.16;99553.56;5101939;28;8865;-79
2023/04/05 10:06:16;;;;;;;;;35.25;32.00;;;;;-1.15;71.44;99549.75;5070781;28;8853;-82
2023/04/05 10:08:47;;;;;;;;;33.75;28.25;;;;;-1.31;70.10;99563.06;5070902;28;8862;-81
2023/04/05 10:11:18;;;;;;;;;37.00;30.75;;;;;-1.35;71.10;99550.94;5070748;28;8837;-80
2023/04/05 10:13:50;;;;;;;;;35.75;31.00;;;;;-1.04;71.87;99544.00;5088346;28;8862;-81
2023/04/05 10:16:22;;;;;;;;;31.25;27.75;;;;;-1.05;70.67;99545.72;5087712;28;8842;-80
2023/04/05 10:18:52;;;;;;;;;36.50;31.50;;;;;-0.84;71.23;99547.06;5087450;28;9635;-80
2023/04/05 10:21:23;;;;;;;;;38.00;33.75;;;;;-0.86;70.94;99546.16;5070223;28;8857;-80
2023/04/05 10:23:58;;;;;;;;;23.00;23.00;;;;;-1.25;69.87;99555.50;5071179;28;8861;-79
2023/04/05 10:26:36;;;;;;;;;30.50;28.75;;;;;-0.86;69.94;99552.22;5087168;28;8849;-80
2023/04/05 10:29:13;;;;;;;;;33.00;30.50;;;;;-0.43;71.28;99545.50;5070874;28;8908;-81
2023/04/05 10:31:51;;;;;;;;;38.50;31.25;;;;;-0.58;69.81;99546.03;5068108;28;8900;-80
2023/04/05 10:34:31;;;;;;;;;30.75;29.75;;;;;-0.88;64.97;99558.16;5070159;28;8873;-79
2023/04/05 10:37:02;;;;;;;;;32.25;28.25;;;;;-0.58;68.62;99542.56;5071699;28;8885;-79
2023/04/05 10:39:37;;;;;;;;;29.25;25.00;;;;;-0.77;66.62;99543.81;5068667;28;8858;-80
2023/04/05 10:42:11;;;;;;;;;22.50;21.25;;;;;-0.94;66.05;99548.56;5067419;28;8880;-79
2023/04/05 10:44:46;;;;;;;;;15.75;14.75;;;;;-0.87;67.22;99540.13;5049946;28;9009;-79
2023/04/05 10:47:19;;;;;;;;;27.75;25.00;;;;;-0.83;66.31;99543.66;5068790;28;8892;-79
2023/04/05 10:49:52;;;;;;;;;25.00;23.25;;;;;-0.74;67.28;99538.75;5084341;28;8846;-80
2023/04/05 10:52:22;;;;;;;;;24.75;23.75;;;;;-0.74;67.18;99543.91;5066972;28;8854;-79
2023/04/05 10:54:53;;;;;;;;;22.75;21.00;;;;;-0.97;64.00;99553.66;5033107;28;8972;-80
2023/04/05 10:57:23;;;;;;;;;21.25;18.75;;;;;-0.88;63.25;99553.91;5067508;28;8968;-80
2023/04/05 10:59:54;;;;;;;;;21.00;18.50;;;;;-0.68;64.83;99569.00;5083600;28;9613;-78
2023/04/05 11:02:24;;;;;;;;;20.00;16.50;;;;;-0.83;63.86;99561.75;5068386;28;8858;-79
2023/04/05 11:04:55;;;;;;;;;34.50;32.50;;;;;-0.67;63.84;99545.81;5100348;28;8847;-80
2023/04/05 11:07:24;;;;;;;;;28.00;22.50;;;;;-0.35;68.64;99548.25;5066341;28;8861;-79
2023/04/05 11:09:56;;;;;;;;;27.00;25.25;;;;;0.00;67.34;99549.06;5067918;28;8853;-79
2023/04/05 11:13:04;;;;;;;;;21.25;20.00;;;;;-0.55;61.31;99545.22;5068000;28;8938;-80
2023/04/05 11:15:35;;;;;;;;;25.50;23.50;;;;;-0.19;65.30;99544.34;5008928;28;8860;-80
2023/04/05 11:18:06;;;;;;;;;25.50;24.25;;;;;0.07;66.61;99537.16;5009724;28;8859;-80
2023/04/05 11:20:46;;;;;;;;;24.50;21.00;;;;;0.08;60.93;99544.94;5009462;28;8876;-80
2023/04/05 11:23:17;;;;;;;;;25.40;23.40;;;;;-0.04;63.34;99548.97;4993186;28;8860;-81
2023/04/05 11:25:47;;;;;;;;;23.50;20.75;;;;;0.16;65.48;99541.63;5042208;28;8872;-80
2023/04/05 11:28:29;;;;;;;;;33.00;25.50;;;;;0.54;63.01;99541.53;5028778;28;9033;-82
2023/04/05 11:31:12;;;;;;;;;26.50;25.25;;;;;0.76;66.97;99541.09;5045935;28;8881;-81
2023/04/05 11:33:57;;;;;;;;;14.50;11.00;;;;;0.61;63.47;99538.22;5029729;28;8958;-80
2023/04/05 11:36:36;;;;;;;;;27.40;24.60;;;;;0.71;62.56;99535.00;5045637;28;8858;-79
2023/04/05 11:39:27;;;;;;;;;23.40;22.40;;;;;0.71;62.06;99539.28;5046189;28;8865;-81
2023/04/05 11:42:01;;;;;;;;;27.80;26.20;;;;;1.03;65.97;99534.72;5029086;28;8858;-80
2023/04/05 11:44:40;;;;;;;;;29.00;26.40;;;;;1.17;63.88;99530.66;5046068;28;8968;-80
2023/04/05 11:47:10;;;;;;;;;28.75;23.00;;;;;0.97;61.59;99537.19;5045681;28;8864;-80
2023/04/05 11:49:41;;;;;;;;;27.50;25.50;;;;;0.98;63.58;99536.38;5028611;28;9596;-80
2023/04/05 11:52:11;;;;;;;;;30.50;21.75;;;;;1.01;60.12;99539.00;5073811;28;8866;-80